Mine Run, Virginia
Current Conditions -  °F | °C
As of 5:55 PM on Monday 24 Nov 2014 (Local Time) from KCJR Reporting Station
Clear Clear  
Wind Chill: 66°   Ceiling: Unl
Heat Index: 66°   Visibility: 10mi
Dew Point: 54°   Wind: 5mph
Humidity: 64%   Direction: 200°SSW
Pressure: 29.69"   Gusts: NA
Location:  38.33°N, 77.77°W
Report Text: KCJR 242255Z AUTO 20004KT 10SM CLR 19/12 A2969 RMK AO2
Loading
Personal Weather Stations






























Interactive Weather Map New forecast layout! Learn more

10-Day Weather Forecast

Advertisements
Track Severe Weather on mobile